Time;durP1;ratioP1;P1;durP2;ratioP2;P2;SDS_P1;SDS_P2;PMS_P1;PMS_P2;Temp;Humidity;BMP_temperature;BMP_pressure;BME280_temperature;BME280_humidity;BME280_pressure;Samples;Min_cycle;Max_cycle;Signal;HPM_P1;HPM_P2
2023/08/08 00:01:42;;;;;;;5.20;2.03;;;18.20;88.00;;;;;;6183238;23;20080;-81
2023/08/08 00:04:08;;;;;;;3.15;1.60;;;18.20;88.30;;;;;;6184089;23;20015;-81
2023/08/08 00:06:34;;;;;;;3.78;1.80;;;18.20;88.10;;;;;;6184708;23;20075;-81
2023/08/08 00:08:59;;;;;;;3.88;2.08;;;18.20;88.20;;;;;;6183291;23;20055;-81
2023/08/08 00:11:25;;;;;;;3.00;1.52;;;18.20;88.20;;;;;;6183362;23;20087;-81
2023/08/08 00:13:50;;;;;;;3.60;1.80;;;18.20;88.20;;;;;;6184235;23;20080;-80
2023/08/08 00:16:16;;;;;;;3.67;1.67;;;18.20;88.30;;;;;;6183199;23;20428;-81
2023/08/08 00:18:41;;;;;;;2.90;1.70;;;18.10;88.30;;;;;;6184836;23;19997;-80
2023/08/08 00:21:07;;;;;;;3.55;1.60;;;18.10;88.30;;;;;;6184883;23;20028;-81
2023/08/08 00:23:32;;;;;;;3.17;1.60;;;18.20;88.50;;;;;;6183038;23;20000;-80
2023/08/08 00:25:58;;;;;;;3.25;1.52;;;18.10;88.40;;;;;;6182990;23;20546;-81
2023/08/08 00:28:24;;;;;;;3.97;1.80;;;18.20;88.50;;;;;;6183138;23;20009;-81
2023/08/08 00:30:50;;;;;;;3.25;1.58;;;18.20;88.40;;;;;;6183259;23;20343;-81
2023/08/08 00:33:16;;;;;;;3.25;1.60;;;18.20;88.50;;;;;;6184887;23;20001;-82
2023/08/08 00:35:42;;;;;;;3.42;1.70;;;18.10;88.40;;;;;;6184133;23;20048;-81
2023/08/08 00:38:09;;;;;;;3.97;1.65;;;18.10;88.40;;;;;;6183221;23;20063;-81
2023/08/08 00:40:34;;;;;;;3.45;1.90;;;18.10;88.30;;;;;;6184644;23;20001;-81
2023/08/08 00:43:00;;;;;;;3.75;1.90;;;18.20;88.40;;;;;;6184678;23;20037;-81
2023/08/08 00:45:26;;;;;;;2.90;1.55;;;18.10;88.40;;;;;;6182621;23;20005;-82
2023/08/08 00:47:51;;;;;;;2.92;1.58;;;18.10;88.30;;;;;;6184835;23;20020;-81
2023/08/08 00:50:17;;;;;;;3.30;1.52;;;18.10;88.40;;;;;;6184909;23;20443;-81
2023/08/08 00:52:44;;;;;;;4.40;1.90;;;18.20;88.40;;;;;;6185054;23;20428;-81
2023/08/08 00:55:10;;;;;;;3.53;1.60;;;18.20;88.40;;;;;;6184404;23;20005;-81
2023/08/08 00:57:38;;;;;;;3.97;1.88;;;18.20;88.60;;;;;;6186426;23;20001;-81
2023/08/08 01:00:07;;;;;;;2.78;1.63;;;18.20;88.60;;;;;;6185041;23;20009;-81
2023/08/08 01:02:33;;;;;;;3.15;1.58;;;18.20;88.60;;;;;;6185073;23;20008;-81
2023/08/08 01:04:59;;;;;;;3.10;1.73;;;18.20;88.60;;;;;;6184287;23;20009;-81
2023/08/08 01:07:53;;;;;;;3.17;1.50;;;18.30;88.60;;;;;;6186334;23;20012;-81
2023/08/08 01:10:27;;;;;;;4.15;2.17;;;18.30;88.60;;;;;;6186397;23;20005;-81
2023/08/08 01:12:59;;;;;;;3.30;1.60;;;18.30;88.50;;;;;;6184884;23;20059;-81
2023/08/08 01:15:25;;;;;;;3.58;1.73;;;18.30;88.60;;;;;;6184606;23;20009;-81
2023/08/08 01:17:51;;;;;;;3.45;1.60;;;18.30;88.50;;;;;;6184711;23;20005;-81
2023/08/08 01:20:18;;;;;;;3.22;1.60;;;18.20;88.50;;;;;;6185108;23;20012;-81
2023/08/08 01:22:52;;;;;;;3.28;1.70;;;18.30;88.30;;;;;;6184749;23;20039;-81
2023/08/08 01:25:19;;;;;;;3.60;1.85;;;18.20;88.30;;;;;;6184079;23;20008;-81
2023/08/08 01:27:45;;;;;;;4.10;1.83;;;18.20;88.10;;;;;;6209718;23;20093;-81
2023/08/08 01:30:11;;;;;;;3.60;1.90;;;18.20;88.20;;;;;;6186164;23;20008;-81
2023/08/08 01:32:36;;;;;;;4.15;2.03;;;18.20;88.20;;;;;;6184658;23;20004;-81
2023/08/08 01:35:02;;;;;;;3.25;1.60;;;18.20;88.30;;;;;;6185650;23;20001;-81
2023/08/08 01:37:46;;;;;;;3.63;1.80;;;18.10;88.20;;;;;;6184424;23;20005;-81
2023/08/08 01:40:15;;;;;;;4.05;1.95;;;18.10;88.30;;;;;;6184841;23;20006;-81
2023/08/08 01:42:43;;;;;;;3.88;1.70;;;18.10;88.30;;;;;;6184594;23;20001;-81
2023/08/08 01:45:09;;;;;;;3.03;1.75;;;18.10;88.40;;;;;;6185624;23;20037;-81
2023/08/08 01:47:35;;;;;;;4.13;1.70;;;18.10;88.40;;;;;;6184490;23;20013;-81
2023/08/08 01:50:01;;;;;;;3.97;1.85;;;18.10;88.40;;;;;;6185997;23;20028;-82
2023/08/08 01:52:26;;;;;;;4.50;2.15;;;18.10;88.30;;;;;;6186064;23;20024;-81
2023/08/08 01:54:52;;;;;;;3.35;1.73;;;18.10;88.40;;;;;;6185303;23;20340;-81
2023/08/08 01:57:17;;;;;;;3.92;1.80;;;18.10;88.40;;;;;;6184013;23;20005;-81
2023/08/08 01:59:45;;;;;;;4.72;1.80;;;18.10;88.40;;;;;;6184051;23;20005;-81
2023/08/08 02:02:11;;;;;;;3.28;1.70;;;18.00;88.30;;;;;;6184412;23;20001;-81
2023/08/08 02:04:36;;;;;;;4.70;1.92;;;18.10;88.40;;;;;;6183647;23;20009;-81
2023/08/08 02:07:02;;;;;;;2.83;1.60;;;18.10;88.40;;;;;;6183921;23;20015;-81
2023/08/08 02:09:27;;;;;;;3.28;1.80;;;18.10;88.50;;;;;;6182465;23;20048;-82
2023/08/08 02:11:53;;;;;;;3.97;1.95;;;18.10;88.40;;;;;;6183752;23;20444;-81
2023/08/08 02:14:18;;;;;;;3.40;2.03;;;18.10;88.40;;;;;;6183069;23;20012;-82
2023/08/08 02:16:44;;;;;;;4.15;1.70;;;18.10;88.40;;;;;;6183844;23;20001;-81
2023/08/08 02:19:09;;;;;;;4.28;1.90;;;18.10;88.40;;;;;;6183470;23;20001;-81
2023/08/08 02:21:35;;;;;;;4.05;2.00;;;18.10;88.40;;;;;;6185302;23;20001;-81
2023/08/08 02:24:00;;;;;;;4.20;1.92;;;18.10;88.40;;;;;;6184905;23;20428;-82
2023/08/08 02:26:26;;;;;;;4.13;2.15;;;18.00;88.40;;;;;;6181343;23;20009;-81
2023/08/08 02:28:51;;;;;;;3.08;1.80;;;18.10;88.50;;;;;;6183095;23;20004;-81
2023/08/08 02:31:20;;;;;;;4.03;2.13;;;18.10;88.50;;;;;;6183232;23;20001;-81
2023/08/08 02:33:50;;;;;;;3.53;1.80;;;18.10;88.40;;;;;;6184567;23;20005;-81
2023/08/08 02:36:17;;;;;;;4.07;1.98;;;18.10;88.60;;;;;;6183448;23;20001;-81
2023/08/08 02:38:43;;;;;;;4.43;2.10;;;18.20;88.60;;;;;;6208561;23;20005;-81
2023/08/08 02:41:08;;;;;;;4.45;2.15;;;18.20;88.50;;;;;;6183278;23;20339;-81
2023/08/08 02:43:34;;;;;;;3.83;2.00;;;18.20;88.60;;;;;;6183098;23;20091;-81
2023/08/08 02:45:59;;;;;;;3.50;1.90;;;18.20;88.50;;;;;;6184644;23;20012;-81
2023/08/08 02:48:25;;;;;;;3.72;1.95;;;18.20;88.50;;;;;;6183123;23;20013;-81
2023/08/08 02:50:50;;;;;;;3.60;1.60;;;18.20;88.50;;;;;;6184780;23;19993;-81
2023/08/08 02:53:16;;;;;;;4.07;1.80;;;18.20;88.50;;;;;;6184638;23;19997;-81
2023/08/08 02:55:41;;;;;;;3.78;1.75;;;18.20;88.50;;;;;;6182983;23;20001;-81
2023/08/08 02:58:07;;;;;;;3.85;2.08;;;18.20;88.30;;;;;;6183308;23;20027;-81
2023/08/08 03:00:32;;;;;;;3.83;1.83;;;18.20;88.20;;;;;;6183222;23;20336;-81
2023/08/08 03:02:58;;;;;;;3.83;1.92;;;18.10;88.10;;;;;;6182998;23;20446;-81
2023/08/08 03:05:23;;;;;;;3.42;1.80;;;18.10;88.20;;;;;;6184149;23;20009;-81
2023/08/08 03:07:49;;;;;;;3.47;1.80;;;18.20;88.20;;;;;;6183094;23;20009;-81
2023/08/08 03:10:15;;;;;;;4.03;1.90;;;18.10;88.30;;;;;;6182906;23;20347;-81
2023/08/08 03:12:41;;;;;;;3.55;1.70;;;18.10;88.20;;;;;;6182660;23;20447;-81
2023/08/08 03:15:07;;;;;;;3.22;1.77;;;18.10;88.30;;;;;;6182680;23;20001;-81
2023/08/08 03:17:33;;;;;;;3.75;1.90;;;18.10;88.30;;;;;;6183048;23;20001;-81
2023/08/08 03:19:58;;;;;;;3.70;1.83;;;18.10;88.40;;;;;;6183193;23;20072;-81
2023/08/08 03:22:24;;;;;;;3.38;1.70;;;18.10;88.40;;;;;;6182790;23;20097;-82
2023/08/08 03:24:49;;;;;;;3.30;1.75;;;18.10;88.40;;;;;;6182764;23;20092;-81
2023/08/08 03:27:15;;;;;;;3.08;1.73;;;18.10;88.40;;;;;;6182211;23;20450;-81
2023/08/08 03:29:40;;;;;;;3.25;1.70;;;18.00;88.40;;;;;;6178563;23;20268;-81
2023/08/08 03:32:06;;;;;;;3.83;1.90;;;18.00;88.40;;;;;;6178885;23;20041;-84
2023/08/08 03:34:32;;;;;;;3.15;1.70;;;18.10;88.40;;;;;;6178449;23;20445;-82
2023/08/08 03:36:58;;;;;;;3.38;1.98;;;18.00;88.50;;;;;;6183340;23;20028;-81
2023/08/08 03:39:23;;;;;;;2.53;1.60;;;18.00;88.40;;;;;;6184426;23;20340;-82
2023/08/08 03:41:49;;;;;;;4.70;2.10;;;18.00;88.40;;;;;;6186773;23;20541;-81
2023/08/08 03:44:14;;;;;;;4.72;1.80;;;18.00;88.40;;;;;;6184767;23;20506;-81
2023/08/08 03:46:40;;;;;;;3.28;1.75;;;18.00;88.50;;;;;;6184693;23;20009;-82
2023/08/08 03:49:05;;;;;;;3.45;1.60;;;18.00;88.50;;;;;;6184686;23;20016;-83
2023/08/08 03:51:31;;;;;;;3.47;1.70;;;18.10;88.50;;;;;;6185374;23;20012;-83
2023/08/08 03:53:56;;;;;;;3.97;1.67;;;18.00;88.40;;;;;;6184259;23;20435;-83
2023/08/08 03:56:22;;;;;;;2.97;1.67;;;18.10;88.40;;;;;;6185372;23;20001;-82
2023/08/08 03:58:47;;;;;;;3.05;1.55;;;18.00;89.00;;;;;;6176690;23;20064;-82
2023/08/08 04:01:13;;;;;;;3.67;1.90;;;18.60;88.80;;;;;;6178181;23;19993;-82
2023/08/08 04:03:38;;;;;;;4.05;1.55;;;18.00;88.40;;;;;;6176033;23;20081;-81
2023/08/08 04:06:04;;;;;;;3.55;1.58;;;18.00;88.40;;;;;;6177040;23;20001;-81
2023/08/08 04:08:29;;;;;;;3.42;1.70;;;18.20;88.60;;;;;;6177692;23;20012;-83
2023/08/08 04:10:55;;;;;;;3.70;1.88;;;18.00;88.40;;;;;;6177101;23;20083;-81
2023/08/08 04:13:20;;;;;;;3.28;1.92;;;18.10;88.50;;;;;;6177250;23;20059;-83
2023/08/08 04:15:46;;;;;;;2.92;1.70;;;18.10;88.60;;;;;;6176493;23;20428;-81
2023/08/08 04:18:11;;;;;;;3.97;2.00;;;18.10;88.60;;;;;;6177794;23;20005;-81
2023/08/08 04:20:37;;;;;;;3.28;1.80;;;18.10;88.50;;;;;;6179083;23;20137;-81
2023/08/08 04:23:03;;;;;;;3.20;1.90;;;18.10;88.50;;;;;;6176474;23;20579;-80
2023/08/08 04:25:29;;;;;;;3.85;1.85;;;18.10;88.50;;;;;;6179044;23;20092;-80
2023/08/08 04:27:55;;;;;;;3.38;1.75;;;18.10;88.50;;;;;;6203215;23;20012;-81
2023/08/08 04:30:21;;;;;;;3.30;1.88;;;18.30;88.60;;;;;;6178726;23;20347;-80
2023/08/08 04:32:46;;;;;;;3.33;1.77;;;18.10;88.50;;;;;;6179103;23;20009;-81
2023/08/08 04:35:12;;;;;;;3.90;1.88;;;18.10;88.40;;;;;;6179955;23;20710;-79
2023/08/08 04:37:37;;;;;;;3.33;2.00;;;18.10;88.30;;;;;;6180678;23;20390;-80
2023/08/08 04:40:03;;;;;;;3.95;1.95;;;18.10;88.10;;;;;;6180927;23;20395;-80
2023/08/08 04:42:29;;;;;;;3.83;1.80;;;18.10;88.00;;;;;;6179730;23;20436;-81
2023/08/08 04:44:54;;;;;;;3.97;1.95;;;18.10;88.20;;;;;;6180197;23;20005;-80
2023/08/08 04:47:20;;;;;;;4.28;1.95;;;18.10;88.20;;;;;;6180439;23;20012;-80
2023/08/08 04:49:45;;;;;;;3.42;2.03;;;18.00;88.10;;;;;;6178583;23;20013;-80
2023/08/08 04:52:11;;;;;;;2.50;1.70;;;18.00;88.20;;;;;;6178638;23;20009;-81
2023/08/08 04:54:36;;;;;;;3.70;1.98;;;18.00;88.20;;;;;;6180021;23;20009;-80
2023/08/08 04:57:02;;;;;;;3.40;1.90;;;18.00;88.30;;;;;;6179969;23;20000;-80
2023/08/08 04:59:27;;;;;;;4.35;2.15;;;18.00;88.40;;;;;;6180499;23;20028;-82
2023/08/08 05:01:53;;;;;;;3.92;1.83;;;18.00;88.30;;;;;;6178877;23;20009;-80
2023/08/08 05:04:19;;;;;;;5.00;2.03;;;18.00;88.40;;;;;;6180042;23;20317;-81
2023/08/08 05:06:44;;;;;;;3.85;1.95;;;18.00;88.40;;;;;;6178686;23;20017;-83
2023/08/08 05:09:10;;;;;;;3.35;2.00;;;18.00;88.40;;;;;;6180571;23;20012;-81
2023/08/08 05:11:36;;;;;;;3.58;2.08;;;18.00;88.40;;;;;;6178843;23;20076;-83
2023/08/08 05:14:02;;;;;;;3.40;2.00;;;18.00;88.40;;;;;;6177840;23;20432;-79
2023/08/08 05:16:27;;;;;;;4.43;2.17;;;18.00;88.40;;;;;;6177960;23;20009;-80
2023/08/08 05:18:53;;;;;;;4.00;2.10;;;18.00;88.40;;;;;;6178077;23;20439;-81
2023/08/08 05:21:19;;;;;;;4.63;2.30;;;18.00;88.40;;;;;;6178243;23;20009;-80
2023/08/08 05:23:45;;;;;;;3.65;1.85;;;18.00;88.40;;;;;;6179103;23;20340;-80
2023/08/08 05:26:10;;;;;;;4.68;2.00;;;18.00;88.40;;;;;;6177236;23;20001;-85
2023/08/08 05:28:36;;;;;;;4.07;2.30;;;18.00;88.40;;;;;;6177628;23;20001;-80
2023/08/08 05:31:01;;;;;;;4.32;2.35;;;18.00;88.30;;;;;;6178478;23;20383;-80
2023/08/08 05:33:27;;;;;;;4.10;2.22;;;18.00;88.30;;;;;;6177893;23;20032;-79
2023/08/08 05:35:52;;;;;;;4.30;2.13;;;18.00;88.40;;;;;;6180163;23;20009;-80
2023/08/08 05:38:18;;;;;;;3.97;2.25;;;18.00;88.30;;;;;;6179490;23;19998;-81
2023/08/08 05:40:44;;;;;;;5.95;2.78;;;18.00;88.50;;;;;;6194719;23;20029;-80
2023/08/08 05:43:09;;;;;;;5.60;2.75;;;18.00;88.20;;;;;;6186404;23;20057;-80
2023/08/08 05:45:35;;;;;;;5.35;2.50;;;18.00;88.30;;;;;;6184115;23;20454;-80
2023/08/08 05:48:00;;;;;;;6.22;2.47;;;18.00;88.20;;;;;;6184177;23;20092;-80
2023/08/08 05:50:29;;;;;;;5.82;2.30;;;18.00;88.10;;;;;;6185842;23;20001;-81
2023/08/08 05:52:54;;;;;;;4.70;2.50;;;18.00;88.10;;;;;;6184617;23;20005;-80
2023/08/08 05:55:20;;;;;;;4.72;2.53;;;18.00;88.20;;;;;;6183652;23;20486;-81
2023/08/08 05:57:45;;;;;;;5.47;2.55;;;18.10;88.20;;;;;;6184417;23;20001;-81
2023/08/08 06:00:11;;;;;;;5.13;2.20;;;18.10;88.10;;;;;;6184931;23;20005;-80
2023/08/08 06:02:37;;;;;;;4.15;2.35;;;18.10;88.10;;;;;;6184306;23;20011;-80
2023/08/08 06:05:04;;;;;;;4.60;2.20;;;18.20;88.10;;;;;;6184115;23;20005;-80
2023/08/08 06:07:29;;;;;;;4.65;2.75;;;18.20;88.00;;;;;;6184408;23;20559;-80
2023/08/08 06:09:55;;;;;;;4.30;2.28;;;18.20;87.90;;;;;;6184351;23;20071;-80
2023/08/08 06:12:21;;;;;;;5.15;2.33;;;18.20;87.80;;;;;;6209201;23;20055;-80
2023/08/08 06:14:47;;;;;;;5.47;2.45;;;18.10;87.80;;;;;;6183809;23;20012;-81
2023/08/08 06:17:12;;;;;;;5.25;2.60;;;18.20;87.80;;;;;;6184407;23;20001;-80
2023/08/08 06:19:38;;;;;;;4.88;2.30;;;18.10;87.80;;;;;;6186070;23;20011;-80
2023/08/08 06:22:04;;;;;;;6.43;2.75;;;18.10;87.80;;;;;;6185378;23;20024;-80
2023/08/08 06:24:29;;;;;;;4.40;2.40;;;18.20;87.90;;;;;;6183687;23;20033;-80
2023/08/08 06:26:55;;;;;;;4.50;2.42;;;18.20;87.90;;;;;;6186001;23;20001;-80
2023/08/08 06:29:20;;;;;;;5.32;2.47;;;18.10;88.00;;;;;;6183703;23;20024;-80
2023/08/08 06:31:46;;;;;;;4.60;2.22;;;18.10;88.00;;;;;;6184198;23;20005;-80
2023/08/08 06:34:11;;;;;;;4.93;2.50;;;18.10;88.00;;;;;;6184901;23;20351;-80
2023/08/08 06:36:37;;;;;;;5.35;2.30;;;18.10;88.10;;;;;;6184192;23;20001;-81
2023/08/08 06:39:03;;;;;;;4.10;2.20;;;18.20;88.10;;;;;;6183761;23;20009;-80
2023/08/08 06:41:28;;;;;;;5.15;2.30;;;18.10;88.00;;;;;;6183806;23;20012;-81
2023/08/08 06:43:54;;;;;;;4.55;2.17;;;18.10;88.00;;;;;;6185076;23;20055;-81
2023/08/08 06:46:20;;;;;;;6.38;2.65;;;18.10;87.90;;;;;;6185322;23;20021;-81
2023/08/08 06:48:46;;;;;;;5.13;2.38;;;18.10;87.90;;;;;;6185293;23;20033;-81
2023/08/08 06:51:12;;;;;;;4.68;2.20;;;18.10;87.90;;;;;;6183904;23;20522;-81
2023/08/08 06:53:38;;;;;;;4.60;2.33;;;18.10;88.00;;;;;;6183396;23;20040;-81
2023/08/08 06:56:03;;;;;;;6.93;2.67;;;18.10;88.00;;;;;;6183703;23;20000;-81
2023/08/08 06:58:29;;;;;;;4.78;2.20;;;18.10;88.00;;;;;;6183962;23;20005;-81
2023/08/08 07:00:54;;;;;;;4.38;2.30;;;18.10;88.00;;;;;;6183760;23;19997;-81
2023/08/08 07:03:20;;;;;;;5.38;2.40;;;18.10;88.00;;;;;;6184937;23;20016;-81
2023/08/08 07:05:47;;;;;;;3.92;2.13;;;18.20;88.10;;;;;;6183019;23;20005;-81
2023/08/08 07:08:13;;;;;;;5.00;2.33;;;18.10;88.10;;;;;;6185060;23;20005;-80
2023/08/08 07:10:38;;;;;;;4.93;2.63;;;18.10;88.10;;;;;;6183719;23;20091;-81
2023/08/08 07:13:04;;;;;;;7.65;2.40;;;18.20;88.20;;;;;;6183569;23;20004;-82
2023/08/08 07:15:30;;;;;;;4.13;2.15;;;18.10;88.10;;;;;;6183062;23;20001;-81
2023/08/08 07:17:56;;;;;;;4.32;2.10;;;18.10;88.10;;;;;;6183684;23;20028;-80
2023/08/08 07:20:22;;;;;;;4.47;2.33;;;18.10;88.10;;;;;;6183254;23;20008;-80
2023/08/08 07:22:48;;;;;;;4.97;2.45;;;18.10;88.20;;;;;;6184026;23;20010;-81
2023/08/08 07:25:13;;;;;;;4.72;2.35;;;18.10;88.10;;;;;;6183235;23;20007;-80
2023/08/08 07:27:39;;;;;;;4.45;2.20;;;18.10;88.10;;;;;;6184786;23;20055;-82
2023/08/08 07:30:06;;;;;;;3.85;2.00;;;18.20;88.10;;;;;;6185016;23;20005;-80
2023/08/08 07:32:32;;;;;;;4.65;2.50;;;18.20;88.00;;;;;;6184857;23;20084;-80
2023/08/08 07:34:58;;;;;;;4.70;2.72;;;18.20;87.90;;;;;;6183214;23;20352;-81
2023/08/08 07:37:23;;;;;;;4.15;2.30;;;18.20;87.80;;;;;;6184980;23;20005;-81
2023/08/08 07:39:51;;;;;;;4.07;2.00;;;18.20;87.80;;;;;;6183381;23;20008;-81
2023/08/08 07:42:17;;;;;;;4.28;2.35;;;18.30;87.70;;;;;;6184831;23;20001;-81
2023/08/08 07:44:42;;;;;;;4.15;2.17;;;18.30;87.70;;;;;;6182874;23;20435;-80
2023/08/08 07:47:08;;;;;;;4.63;2.60;;;18.30;87.50;;;;;;6184620;23;20013;-80
2023/08/08 07:49:33;;;;;;;4.10;2.33;;;18.30;87.40;;;;;;6183261;23;20348;-81
2023/08/08 07:51:59;;;;;;;4.93;2.63;;;18.40;87.40;;;;;;6183106;23;20032;-81
2023/08/08 07:54:24;;;;;;;4.30;2.50;;;18.40;87.50;;;;;;6182854;23;20009;-82
2023/08/08 07:56:50;;;;;;;6.40;2.47;;;18.40;87.50;;;;;;6183325;23;20004;-80
2023/08/08 07:59:16;;;;;;;6.22;2.53;;;18.30;87.40;;;;;;6184707;23;20007;-81
2023/08/08 08:01:42;;;;;;;3.97;2.20;;;18.30;87.50;;;;;;6183213;23;20077;-81
2023/08/08 08:04:07;;;;;;;5.03;2.58;;;18.30;87.60;;;;;;6182654;23;20005;-81
2023/08/08 08:06:33;;;;;;;4.38;2.38;;;18.30;87.80;;;;;;6183301;23;20008;-80
2023/08/08 08:08:58;;;;;;;4.40;2.58;;;18.20;87.90;;;;;;6184773;23;20008;-81
2023/08/08 08:11:24;;;;;;;4.18;2.20;;;18.20;88.00;;;;;;6182911;23;20009;-81
2023/08/08 08:13:49;;;;;;;5.03;2.70;;;18.20;88.10;;;;;;6182928;23;20031;-81
2023/08/08 08:16:15;;;;;;;4.43;2.55;;;18.20;88.20;;;;;;6183190;23;20001;-81
2023/08/08 08:18:41;;;;;;;5.75;2.65;;;18.20;88.40;;;;;;6183067;23;20060;-80
2023/08/08 08:21:06;;;;;;;5.30;2.65;;;18.20;88.40;;;;;;6182997;23;20009;-80
2023/08/08 08:23:32;;;;;;;6.45;2.83;;;18.10;88.30;;;;;;6185862;23;20005;-82
2023/08/08 08:25:58;;;;;;;4.95;2.38;;;18.20;88.50;;;;;;6183168;23;20009;-81
2023/08/08 08:28:23;;;;;;;4.65;2.50;;;18.10;88.40;;;;;;6184754;23;20028;-81
2023/08/08 08:30:49;;;;;;;5.05;2.50;;;18.10;88.40;;;;;;6182737;23;20459;-82
2023/08/08 08:33:15;;;;;;;4.78;2.58;;;18.10;88.40;;;;;;6184562;23;20005;-82
2023/08/08 08:35:40;;;;;;;5.32;2.45;;;18.10;88.40;;;;;;6182647;23;20527;-80
2023/08/08 08:38:06;;;;;;;5.30;2.60;;;18.10;88.40;;;;;;6182921;23;20005;-80
2023/08/08 08:40:39;;;;;;;6.10;2.50;;;18.10;88.40;;;;;;6183012;23;20009;-80
2023/08/08 08:43:06;;;;;;;4.65;2.40;;;18.10;88.30;;;;;;6184748;23;20001;-81
2023/08/08 08:45:36;;;;;;;4.63;2.42;;;18.20;88.10;;;;;;6182408;23;20016;-81
2023/08/08 08:48:03;;;;;;;5.45;2.67;;;18.30;88.00;;;;;;6182892;23;20083;-82
2023/08/08 08:50:32;;;;;;;5.07;2.70;;;18.30;87.80;;;;;;6184459;23;20011;-81
2023/08/08 08:52:59;;;;;;;3.95;2.40;;;18.40;87.60;;;;;;6183395;23;20016;-80
2023/08/08 08:55:26;;;;;;;5.55;2.38;;;18.40;87.50;;;;;;6183167;23;20009;-80
2023/08/08 08:57:52;;;;;;;5.18;2.67;;;18.40;87.40;;;;;;6184682;23;20024;-81
2023/08/08 09:00:18;;;;;;;3.95;2.47;;;18.40;87.40;;;;;;6182921;23;20005;-80
2023/08/08 09:02:44;;;;;;;5.20;2.80;;;18.40;87.30;;;;;;6182703;23;20032;-81
2023/08/08 09:05:12;;;;;;;4.80;2.50;;;18.40;87.30;;;;;;6182693;23;20092;-81
2023/08/08 09:07:37;;;;;;;5.50;2.80;;;18.40;87.30;;;;;;6182786;23;20009;-81
2023/08/08 09:10:03;;;;;;;4.68;2.55;;;18.40;87.20;;;;;;6184737;23;20032;-81
2023/08/08 09:12:31;;;;;;;4.93;2.40;;;18.50;87.10;;;;;;6184495;23;20016;-81
2023/08/08 09:14:57;;;;;;;5.68;2.85;;;18.50;86.90;;;;;;6184119;23;20005;-81
2023/08/08 09:17:26;;;;;;;5.03;2.40;;;18.50;86.80;;;;;;6184579;23;20001;-78
2023/08/08 09:19:54;;;;;;;3.92;2.30;;;18.60;86.80;;;;;;6184443;23;20012;-81
2023/08/08 09:22:20;;;;;;;4.20;2.20;;;18.60;86.60;;;;;;6184223;23;20075;-81
2023/08/08 09:24:46;;;;;;;5.40;2.63;;;18.50;86.50;;;;;;6184260;23;20443;-81
2023/08/08 09:27:12;;;;;;;5.30;2.50;;;18.50;86.60;;;;;;6184400;23;20005;-81
2023/08/08 09:29:38;;;;;;;4.90;2.50;;;18.50;86.70;;;;;;6209223;23;20016;-81
2023/08/08 09:32:08;;;;;;;3.60;2.33;;;18.50;86.80;;;;;;6184486;23;20012;-81
2023/08/08 09:34:34;;;;;;;5.03;2.45;;;18.50;86.90;;;;;;6184223;23;20009;-81
2023/08/08 09:37:00;;;;;;;5.35;2.60;;;18.40;87.00;;;;;;6186150;23;20064;-80
2023/08/08 09:39:26;;;;;;;4.18;2.30;;;18.40;87.20;;;;;;6184219;23;20031;-81
2023/08/08 09:41:52;;;;;;;4.20;2.42;;;18.40;87.30;;;;;;6184416;23;20079;-80
2023/08/08 09:44:17;;;;;;;4.80;2.08;;;18.40;87.30;;;;;;6183803;23;20043;-83
2023/08/08 09:46:43;;;;;;;4.13;2.40;;;18.40;87.10;;;;;;6184564;23;20005;-81
2023/08/08 09:49:11;;;;;;;5.22;2.53;;;18.40;87.20;;;;;;6184562;23;20005;-81
2023/08/08 09:51:36;;;;;;;4.63;2.70;;;18.40;87.30;;;;;;6184485;23;20005;-81
2023/08/08 09:54:03;;;;;;;4.70;2.80;;;18.40;87.40;;;;;;6184030;23;20016;-81
2023/08/08 09:56:30;;;;;;;5.63;2.80;;;18.40;87.40;;;;;;6184234;23;20008;-81
2023/08/08 09:58:57;;;;;;;4.93;2.50;;;18.40;87.50;;;;;;6184239;23;20028;-81
2023/08/08 10:01:25;;;;;;;4.43;2.38;;;18.40;87.40;;;;;;6184321;23;20001;-81
2023/08/08 10:03:52;;;;;;;5.30;2.53;;;18.40;87.30;;;;;;6183815;23;20001;-81
2023/08/08 10:06:18;;;;;;;4.70;2.50;;;18.50;87.00;;;;;;6184229;23;20404;-81
2023/08/08 10:08:45;;;;;;;4.28;2.35;;;18.50;86.70;;;;;;6185604;23;20368;-81
2023/08/08 10:11:11;;;;;;;4.85;2.40;;;18.50;86.70;;;;;;6183918;23;20079;-81
2023/08/08 10:13:38;;;;;;;3.70;2.10;;;18.60;86.40;;;;;;6185429;23;19997;-81
2023/08/08 10:16:08;;;;;;;4.35;2.20;;;18.60;86.50;;;;;;6183977;23;20340;-81
2023/08/08 10:18:34;;;;;;;3.00;1.90;;;18.70;86.10;;;;;;6183917;23;20012;-82
2023/08/08 10:20:59;;;;;;;4.68;2.50;;;18.70;85.80;;;;;;6185454;23;20301;-81
2023/08/08 10:23:25;;;;;;;4.22;2.30;;;18.70;85.80;;;;;;6185559;23;20451;-79
2023/08/08 10:25:52;;;;;;;4.70;2.22;;;18.70;85.80;;;;;;6183811;23;20005;-81
2023/08/08 10:28:20;;;;;;;4.47;2.30;;;18.80;86.00;;;;;;6184947;23;20072;-80
2023/08/08 10:30:48;;;;;;;4.47;2.28;;;18.60;85.70;;;;;;6208978;23;20009;-81
2023/08/08 10:33:25;;;;;;;4.00;2.30;;;18.70;86.10;;;;;;6183520;23;20028;-81
2023/08/08 10:36:01;;;;;;;4.22;2.30;;;18.70;86.00;;;;;;6183539;23;20004;-81
2023/08/08 10:38:46;;;;;;;6.15;2.25;;;18.60;86.40;;;;;;6185422;23;20000;-81
2023/08/08 10:41:20;;;;;;;4.97;2.00;;;18.60;86.50;;;;;;6183519;23;20061;-80
2023/08/08 10:43:54;;;;;;;4.22;1.85;;;18.50;86.40;;;;;;6208797;23;19997;-81
2023/08/08 10:46:25;;;;;;;4.70;2.20;;;18.50;86.70;;;;;;6185156;23;20439;-81
2023/08/08 10:48:51;;;;;;;3.83;2.13;;;18.50;86.60;;;;;;6185228;23;20340;-81
2023/08/08 10:51:17;;;;;;;4.57;1.98;;;18.50;86.60;;;;;;6185223;23;19993;-80
2023/08/08 10:53:43;;;;;;;4.55;2.10;;;18.50;86.50;;;;;;6184956;23;20331;-81
2023/08/08 10:56:13;;;;;;;5.47;2.20;;;18.50;86.50;;;;;;6184648;23;20000;-81
2023/08/08 10:58:40;;;;;;;4.00;2.17;;;18.50;86.50;;;;;;6184436;23;20467;-81
2023/08/08 11:01:08;;;;;;;4.03;2.03;;;18.50;86.50;;;;;;6208645;23;20016;-82
2023/08/08 11:03:36;;;;;;;5.10;2.17;;;18.50;86.50;;;;;;6183172;23;20009;-81
2023/08/08 11:06:03;;;;;;;4.10;1.80;;;18.50;86.40;;;;;;6183461;23;20355;-81
2023/08/08 11:08:31;;;;;;;4.55;2.00;;;18.60;86.40;;;;;;6208682;23;20028;-80
2023/08/08 11:10:57;;;;;;;4.43;2.10;;;18.50;86.30;;;;;;6185178;23;20405;-81
2023/08/08 11:13:22;;;;;;;3.78;1.83;;;18.50;86.40;;;;;;6183202;23;20009;-80
2023/08/08 11:15:48;;;;;;;3.97;1.95;;;18.50;86.40;;;;;;6184927;23;20367;-81
2023/08/08 11:18:13;;;;;;;4.30;2.10;;;18.50;86.50;;;;;;6183442;23;20001;-81
2023/08/08 11:20:40;;;;;;;2.97;1.90;;;18.50;86.60;;;;;;6184967;23;19997;-81
2023/08/08 11:23:09;;;;;;;4.05;2.00;;;18.50;86.50;;;;;;6184032;23;20001;-81
2023/08/08 11:25:36;;;;;;;3.53;1.98;;;18.50;86.60;;;;;;6183117;23;20005;-80
2023/08/08 11:28:01;;;;;;;4.32;2.08;;;18.40;86.50;;;;;;6185176;23;20032;-81
2023/08/08 11:30:37;;;;;;;4.35;2.05;;;18.40;86.50;;;;;;6184771;23;20016;-81
2023/08/08 11:33:03;;;;;;;3.00;1.70;;;18.40;86.60;;;;;;6183091;23;20016;-82
2023/08/08 11:35:29;;;;;;;4.88;2.10;;;18.40;86.50;;;;;;6183048;23;20009;-81
2023/08/08 11:37:57;;;;;;;3.83;2.00;;;18.40;86.70;;;;;;6184793;23;20008;-81
2023/08/08 11:40:25;;;;;;;3.35;1.77;;;18.40;86.50;;;;;;6183346;23;20005;-82
2023/08/08 11:42:51;;;;;;;4.00;2.05;;;18.40;86.80;;;;;;6208145;23;20001;-81
2023/08/08 11:45:18;;;;;;;2.75;1.80;;;18.40;86.90;;;;;;6207935;23;20009;-82
2023/08/08 11:47:44;;;;;;;4.03;1.67;;;18.40;87.00;;;;;;6182989;23;20092;-81
2023/08/08 11:50:10;;;;;;;4.18;1.80;;;18.40;86.90;;;;;;6184728;23;20001;-81
2023/08/08 11:52:41;;;;;;;3.55;1.90;;;18.40;86.90;;;;;;6183198;23;20344;-81
2023/08/08 11:55:11;;;;;;;3.80;1.88;;;18.30;86.70;;;;;;6182878;23;20012;-81
2023/08/08 11:57:38;;;;;;;3.70;1.92;;;18.30;86.90;;;;;;6184600;23;20001;-81
2023/08/08 12:00:12;;;;;;;3.22;1.77;;;18.30;87.00;;;;;;6183232;23;20052;-81
2023/08/08 12:02:39;;;;;;;5.15;2.03;;;18.30;86.90;;;;;;6208414;23;20005;-81
2023/08/08 12:05:11;;;;;;;2.80;1.70;;;18.30;86.70;;;;;;6182900;23;20005;-82
2023/08/08 12:07:41;;;;;;;2.88;1.55;;;18.40;86.70;;;;;;6185141;23;20011;-81
2023/08/08 12:10:14;;;;;;;4.40;1.95;;;18.40;86.60;;;;;;6182948;23;20012;-81
2023/08/08 12:12:39;;;;;;;3.63;1.73;;;18.30;86.60;;;;;;6183101;23;20444;-81
2023/08/08 12:15:09;;;;;;;3.28;1.77;;;18.30;86.70;;;;;;6182493;23;20103;-81
2023/08/08 12:17:36;;;;;;;4.25;1.88;;;18.30;86.90;;;;;;6184582;23;20001;-81
2023/08/08 12:20:06;;;;;;;3.65;1.90;;;18.30;86.80;;;;;;6183055;23;20368;-81
2023/08/08 12:22:32;;;;;;;4.22;2.00;;;18.30;86.90;;;;;;6182862;23;20084;-81
2023/08/08 12:24:58;;;;;;;2.75;1.60;;;18.30;86.80;;;;;;6182742;23;20048;-81
2023/08/08 12:27:23;;;;;;;4.18;1.83;;;18.30;86.60;;;;;;6184613;23;20502;-81
2023/08/08 12:29:49;;;;;;;4.28;1.63;;;18.40;86.50;;;;;;6182677;23;20009;-81
2023/08/08 12:32:14;;;;;;;3.83;1.48;;;18.40;86.30;;;;;;6182809;23;20009;-81
2023/08/08 12:34:40;;;;;;;3.78;1.48;;;18.40;86.10;;;;;;6184313;23;20008;-81
2023/08/08 12:37:05;;;;;;;2.97;1.63;;;18.50;86.10;;;;;;6182863;23;20052;-81
2023/08/08 12:39:31;;;;;;;3.38;1.52;;;18.50;86.00;;;;;;6182781;23;20005;-81
2023/08/08 12:41:56;;;;;;;2.88;1.50;;;18.50;85.90;;;;;;6182863;23;20005;-80
2023/08/08 12:44:22;;;;;;;2.75;1.65;;;18.50;85.90;;;;;;6183418;23;20005;-80